Time;durP1;ratioP1;P1;durP2;ratioP2;P2;SDS_P1;SDS_P2;PMS_P1;PMS_P2;Temp;Humidity;BMP_temperature;BMP_pressure;BME280_temperature;BME280_humidity;BME280_pressure;Samples;Min_cycle;Max_cycle;Signal;HPM_P1;HPM_P2
2022/04/01 00:01:48;;;;;;;15.23;9.50;;;7.30;99.90;;;;;;5250883;28;20044;-73
2022/04/01 00:04:21;;;;;;;17.60;8.68;;;7.20;99.90;;;;;;5248776;28;20047;-73
2022/04/01 00:06:53;;;;;;;15.10;8.68;;;7.10;99.90;;;;;;5269808;28;20521;-73
2022/04/01 00:09:27;;;;;;;18.67;9.63;;;7.10;99.90;;;;;;5268851;28;20058;-73
2022/04/01 00:11:59;;;;;;;17.77;9.25;;;7.00;99.90;;;;;;5234749;28;20055;-74
2022/04/01 00:14:32;;;;;;;15.45;8.23;;;7.00;99.90;;;;;;5269599;28;20032;-74
2022/04/01 00:17:05;;;;;;;17.83;8.55;;;6.90;99.90;;;;;;5262852;28;20514;-73
2022/04/01 00:19:37;;;;;;;18.80;8.95;;;6.80;99.90;;;;;;5269569;28;20043;-74
2022/04/01 00:22:11;;;;;;;16.00;8.35;;;6.80;99.90;;;;;;5248061;28;20051;-72
2022/04/01 00:24:43;;;;;;;14.68;7.80;;;6.80;99.90;;;;;;5252555;28;20518;-74
2022/04/01 00:27:15;;;;;;;16.67;8.65;;;6.70;99.90;;;;;;5259767;28;20066;-74
2022/04/01 00:29:48;;;;;;;18.92;9.88;;;6.70;99.90;;;;;;5254024;28;20488;-74
2022/04/01 00:32:21;;;;;;;14.23;8.20;;;6.70;99.90;;;;;;5230263;28;20035;-74
2022/04/01 00:34:54;;;;;;;24.73;11.48;;;6.70;99.90;;;;;;5271075;28;20051;-74
2022/04/01 00:37:26;;;;;;;17.35;10.05;;;6.70;99.90;;;;;;5270962;27;20058;-74
2022/04/01 00:39:59;;;;;;;22.88;9.75;;;6.70;99.90;;;;;;5249592;28;20058;-73
2022/04/01 00:42:31;;;;;;;17.17;9.50;;;6.80;99.90;;;;;;5256947;28;20662;-73
2022/04/01 00:45:04;;;;;;;16.77;8.65;;;6.80;99.90;;;;;;5275109;28;20027;-73
2022/04/01 00:47:37;;;;;;;18.02;9.48;;;6.80;99.90;;;;;;5273246;28;20039;-74
2022/04/01 00:50:10;;;;;;;17.17;8.60;;;6.80;99.90;;;;;;5278731;27;20055;-74
2022/04/01 00:52:44;;;;;;;15.67;8.33;;;6.80;99.90;;;;;;5254749;28;20055;-74
2022/04/01 00:55:16;;;;;;;13.57;7.88;;;6.80;99.90;;;;;;5249188;28;20050;-73
2022/04/01 00:57:49;;;;;;;22.73;8.35;;;6.70;99.90;;;;;;5271125;28;20046;-73
2022/04/01 01:00:25;;;;;;;14.97;7.33;;;6.70;99.90;;;;;;5270873;27;21475;-73
2022/04/01 01:02:58;;;;;;;17.65;9.18;;;6.60;99.90;;;;;;5272148;28;20289;-73
2022/04/01 01:05:31;;;;;;;12.77;7.53;;;6.60;99.90;;;;;;5272343;28;20376;-74
2022/04/01 01:08:06;;;;;;;11.80;7.07;;;6.60;99.90;;;;;;5268740;28;20071;-73
2022/04/01 01:10:41;;;;;;;10.60;6.30;;;6.60;99.90;;;;;;5273156;28;20044;-73
2022/04/01 01:13:13;;;;;;;;;;;6.50;99.90;;;;;;5249395;28;20709;-73
2022/04/01 01:15:46;;;;;;;13.70;7.95;;;6.40;99.90;;;;;;5252922;27;19920;-74
2022/04/01 01:18:19;;;;;;;13.45;7.28;;;6.40;99.90;;;;;;5238605;28;20053;-74
2022/04/01 01:20:51;;;;;;;13.02;6.68;;;6.40;99.90;;;;;;5255933;28;20040;-72
2022/04/01 01:23:28;;;;;;;11.75;6.15;;;6.40;99.90;;;;;;5256327;28;20745;-73
2022/04/01 01:26:01;;;;;;;11.10;6.07;;;6.40;99.90;;;;;;5248903;28;20135;-73
2022/04/01 01:28:34;;;;;;;14.40;6.35;;;6.30;99.90;;;;;;5251173;28;20674;-73
2022/04/01 01:31:07;;;;;;;11.25;6.47;;;6.40;99.90;;;;;;5248894;28;20048;-73
2022/04/01 01:33:43;;;;;;;11.52;6.40;;;6.40;99.90;;;;;;5275176;27;20386;-73
2022/04/01 01:36:16;;;;;;;10.60;6.35;;;6.40;99.90;;;;;;5241423;28;20043;-73
2022/04/01 01:38:49;;;;;;;9.23;5.60;;;6.40;99.90;;;;;;5233080;28;20419;-73
2022/04/01 01:41:22;;;;;;;9.48;5.93;;;6.40;99.90;;;;;;5266136;28;20523;-74
2022/04/01 01:43:54;;;;;;;9.75;6.00;;;6.30;99.90;;;;;;5239816;28;20051;-73
2022/04/01 01:46:27;;;;;;;10.23;5.65;;;6.30;99.90;;;;;;5248797;28;20062;-72
2022/04/01 01:48:59;;;;;;;10.10;5.75;;;6.30;99.90;;;;;;5254315;28;20633;-74
2022/04/01 01:57:25;;;;;;;11.45;5.95;;;6.30;99.90;;;;;;5265071;28;20073;-72
2022/04/01 01:59:59;;;;;;;10.40;5.75;;;6.30;99.90;;;;;;5239938;28;20086;-72
2022/04/01 02:02:32;;;;;;;;;;;6.30;99.90;;;;;;5269096;28;20040;-72
2022/04/01 02:05:08;;;;;;;10.20;6.22;;;6.20;99.90;;;;;;5231412;28;19924;-72
2022/04/01 02:07:40;;;;;;;13.27;6.47;;;6.20;99.90;;;;;;5235341;28;20430;-73
2022/04/01 02:10:16;;;;;;;11.95;6.70;;;6.20;99.90;;;;;;5249712;28;20035;-72
2022/04/01 02:12:49;;;;;;;11.32;5.88;;;6.10;99.90;;;;;;5270015;28;20107;-72
2022/04/01 02:15:22;;;;;;;15.18;6.60;;;6.10;99.90;;;;;;5243486;28;20613;-72
2022/04/01 02:17:55;;;;;;;14.65;6.53;;;6.10;99.90;;;;;;5250873;28;20403;-72
2022/04/01 02:20:31;;;;;;;15.47;8.57;;;6.10;99.90;;;;;;5245443;28;20047;-72
2022/04/01 02:23:03;;;;;;;13.85;7.38;;;6.10;99.90;;;;;;5263822;27;20050;-73
2022/04/01 02:25:37;;;;;;;;;;;6.20;99.90;;;;;;5266539;28;20059;-72
2022/04/01 02:28:10;;;;;;;18.77;7.72;;;6.10;99.90;;;;;;5252624;28;19920;-73
2022/04/01 02:30:45;;;;;;;16.92;8.32;;;6.20;99.90;;;;;;5252440;27;20566;-72
2022/04/01 02:33:47;;;;;;;15.68;8.07;;;6.20;99.90;;;;;;5233121;28;20063;-72
2022/04/01 02:36:19;;;;;;;19.00;8.55;;;6.10;99.90;;;;;;5270373;28;20043;-72
2022/04/01 02:38:53;;;;;;;15.60;8.02;;;6.20;99.90;;;;;;5234136;28;20055;-73
2022/04/01 02:41:26;;;;;;;15.30;7.30;;;6.20;99.90;;;;;;5248429;28;20051;-72
2022/04/01 02:44:08;;;;;;;14.02;7.60;;;6.20;99.90;;;;;;5233592;28;20039;-72
2022/04/01 02:46:45;;;;;;;11.55;6.65;;;6.10;99.90;;;;;;5267484;27;20107;-73
2022/04/01 02:49:17;;;;;;;19.58;8.52;;;6.00;99.90;;;;;;5235298;28;20044;-73
2022/04/01 02:52:02;;;;;;;13.35;7.35;;;5.90;99.90;;;;;;5270387;28;20054;-73
2022/04/01 02:54:38;;;;;;;12.20;7.18;;;5.80;99.90;;;;;;5262175;27;20051;-72
2022/04/01 02:57:11;;;;;;;13.70;7.38;;;5.70;99.90;;;;;;5244507;28;20051;-72
2022/04/01 02:59:45;;;;;;;12.68;7.15;;;5.70;99.90;;;;;;5225635;28;20921;-73
2022/04/01 03:02:18;;;;;;;14.40;7.32;;;5.60;99.90;;;;;;5244559;28;20047;-74
2022/04/01 03:04:50;;;;;;;11.93;6.65;;;5.60;99.90;;;;;;5266523;28;20391;-73
2022/04/01 03:07:23;;;;;;;14.73;7.82;;;5.50;99.90;;;;;;5245941;28;20225;-73
2022/04/01 03:09:56;;;;;;;13.48;7.20;;;5.50;99.90;;;;;;5243266;28;20043;-73
2022/04/01 03:12:34;;;;;;;10.23;6.75;;;5.40;99.90;;;;;;5242075;28;20352;-74
2022/04/01 03:15:24;;;;;;;8.75;5.13;;;5.40;99.90;;;;;;5245621;28;20060;-73
2022/04/01 03:18:15;;;;;;;11.75;5.63;;;5.30;99.90;;;;;;5263198;28;20043;-73
2022/04/01 03:20:49;;;;;;;9.07;6.07;;;5.30;99.90;;;;;;5235921;28;20058;-73
2022/04/01 03:23:22;;;;;;;11.10;5.35;;;5.10;99.90;;;;;;5248105;28;20051;-73
2022/04/01 03:25:56;;;;;;;10.93;6.03;;;5.10;99.90;;;;;;5209264;28;20062;-72
2022/04/01 03:28:34;;;;;;;12.35;6.30;;;5.10;99.90;;;;;;5216344;28;20936;-73
2022/04/01 03:31:10;;;;;;;9.30;5.97;;;5.00;99.90;;;;;;5241869;28;20039;-73
2022/04/01 03:33:44;;;;;;;11.13;5.97;;;4.90;99.90;;;;;;5269280;28;20049;-73
2022/04/01 03:36:16;;;;;;;7.57;4.80;;;4.90;99.90;;;;;;5249842;28;20047;-73
2022/04/01 03:38:53;;;;;;;8.10;5.07;;;4.90;99.90;;;;;;5247632;28;20047;-73
2022/04/01 03:41:36;;;;;;;8.02;4.80;;;4.80;99.90;;;;;;5228161;28;20768;-73
2022/04/01 03:44:10;;;;;;;7.45;4.38;;;4.80;99.90;;;;;;5254424;28;20419;-72
2022/04/01 03:47:01;;;;;;;9.55;5.03;;;4.70;99.90;;;;;;5248433;28;20036;-72
2022/04/01 03:49:36;;;;;;;8.77;5.63;;;4.70;99.90;;;;;;5245105;28;20411;-72
2022/04/01 03:52:09;;;;;;;7.45;4.53;;;4.60;99.90;;;;;;5254067;28;20040;-73
2022/04/01 03:54:45;;;;;;;7.63;4.28;;;4.70;99.90;;;;;;5241958;28;20082;-74
2022/04/01 03:57:41;;;;;;;7.35;4.50;;;4.60;99.90;;;;;;5243776;28;20059;-72
2022/04/01 04:00:33;;;;;;;6.30;3.40;;;4.50;99.90;;;;;;5264922;28;20629;-71
2022/04/01 04:03:09;;;;;;;8.50;4.55;;;4.40;99.90;;;;;;5263937;28;20652;-72
2022/04/01 04:05:43;;;;;;;7.45;3.75;;;4.40;99.90;;;;;;5236646;28;20043;-73
2022/04/01 04:08:18;;;;;;;7.97;4.97;;;4.30;99.90;;;;;;5248130;27;20036;-73
2022/04/01 04:10:53;;;;;;;8.38;4.90;;;4.40;99.90;;;;;;5246663;28;20043;-73
2022/04/01 04:13:29;;;;;;;8.13;4.50;;;4.40;99.90;;;;;;5251092;28;20431;-70
2022/04/01 04:16:24;;;;;;;6.38;3.92;;;4.30;99.90;;;;;;5247493;28;20043;-72
2022/04/01 04:19:08;;;;;;;7.03;4.30;;;4.20;99.90;;;;;;5249797;28;20402;-71
2022/04/01 04:22:00;;;;;;;10.02;3.80;;;4.10;99.90;;;;;;5252132;28;20434;-72
2022/04/01 04:25:10;;;;;;;7.78;4.47;;;4.00;99.90;;;;;;5244023;28;20044;-72
2022/04/01 04:27:59;;;;;;;7.70;4.25;;;3.90;99.90;;;;;;5271250;27;20178;-72
2022/04/01 04:30:35;;;;;;;9.68;4.75;;;3.90;99.90;;;;;;5245556;27;20059;-71
2022/04/01 04:33:30;;;;;;;6.75;3.88;;;3.80;99.90;;;;;;5251524;28;20593;-72
2022/04/01 04:36:04;;;;;;;8.80;4.32;;;3.70;99.90;;;;;;5250465;28;20047;-72
2022/04/01 04:38:54;;;;;;;9.70;4.32;;;3.70;99.90;;;;;;5247824;28;20118;-72
2022/04/01 04:41:28;;;;;;;12.60;5.03;;;3.70;99.90;;;;;;5248140;28;20051;-71
2022/04/01 04:44:10;;;;;;;8.27;4.27;;;3.70;99.90;;;;;;5234712;28;20657;-70
2022/04/01 04:46:44;;;;;;;11.15;5.03;;;3.60;99.90;;;;;;5253764;28;20308;-71
2022/04/01 04:49:18;;;;;;;9.82;4.32;;;3.60;99.90;;;;;;5262428;27;20039;-71
2022/04/01 04:51:52;;;;;;;11.48;5.28;;;3.60;99.90;;;;;;5250348;27;20039;-71
2022/04/01 04:54:28;;;;;;;10.40;5.15;;;3.60;99.90;;;;;;5240890;28;20052;-70
2022/04/01 04:57:15;;;;;;;7.07;3.97;;;3.60;99.90;;;;;;5245095;28;20055;-71
2022/04/01 04:59:49;;;;;;;10.98;5.10;;;3.60;99.90;;;;;;5265990;28;20042;-71
2022/04/01 05:02:50;;;;;;;11.20;4.82;;;3.60;99.90;;;;;;5255218;27;20402;-72
2022/04/01 05:05:44;;;;;;;7.43;3.75;;;3.60;99.90;;;;;;5221058;28;20055;-71
2022/04/01 05:08:54;;;;;;;9.30;4.53;;;3.60;99.90;;;;;;5261796;28;20595;-71
2022/04/01 05:11:52;;;;;;;9.88;4.95;;;3.50;99.90;;;;;;5250708;28;20039;-71
2022/04/01 05:14:35;;;;;;;8.55;4.25;;;3.50;99.90;;;;;;5253579;27;20059;-70
2022/04/01 05:17:36;;;;;;;8.50;4.60;;;3.40;99.90;;;;;;5247245;28;20055;-71
2022/04/01 05:20:16;;;;;;;8.70;4.93;;;3.40;99.90;;;;;;5225042;28;20423;-72
2022/04/01 05:23:12;;;;;;;8.70;4.45;;;3.30;99.90;;;;;;5227863;28;20406;-71
2022/04/01 05:26:02;;;;;;;10.82;5.05;;;3.40;99.90;;;;;;5246410;28;20043;-72
2022/04/01 05:28:55;;;;;;;9.38;4.68;;;3.40;99.90;;;;;;5275362;28;20042;-72
2022/04/01 05:31:36;;;;;;;7.28;3.85;;;3.40;99.90;;;;;;5256216;22;20056;-71
2022/04/01 05:34:16;;;;;;;8.05;4.35;;;3.40;99.90;;;;;;5221685;28;20425;-71
2022/04/01 05:36:50;;;;;;;10.80;4.97;;;3.50;99.90;;;;;;5238257;28;20055;-71
2022/04/01 05:39:28;;;;;;;9.40;3.65;;;3.50;99.90;;;;;;5228937;28;20064;-71
2022/04/01 05:42:10;;;;;;;6.07;3.53;;;3.50;99.90;;;;;;5233654;28;20049;-71
2022/04/01 05:45:04;;;;;;;9.65;5.18;;;3.40;99.90;;;;;;5252322;22;20048;-69
2022/04/01 05:47:37;;;;;;;12.18;5.10;;;3.40;99.90;;;;;;5229626;28;20071;-70
2022/04/01 05:50:09;;;;;;;6.07;3.50;;;3.50;99.90;;;;;;5230670;28;20044;-69
2022/04/01 05:52:45;;;;;;;7.28;3.88;;;3.50;99.90;;;;;;5229730;28;20052;-70
2022/04/01 05:55:26;;;;;;;4.93;3.20;;;3.40;99.90;;;;;;5228786;28;20040;-70
2022/04/01 05:58:05;;;;;;;6.90;4.25;;;3.40;99.90;;;;;;5213983;28;20049;-70
2022/04/01 06:00:49;;;;;;;8.48;3.45;;;3.40;99.90;;;;;;5213094;28;20048;-69
2022/04/01 06:03:37;;;;;;;7.72;4.07;;;3.30;99.90;;;;;;5198734;28;20056;-70
2022/04/01 06:06:35;;;;;;;9.15;4.05;;;3.40;99.90;;;;;;5214580;28;20480;-69
2022/04/01 06:09:36;;;;;;;6.32;3.42;;;3.40;99.90;;;;;;5203374;28;20049;-69
2022/04/01 06:12:31;;;;;;;5.68;3.30;;;3.40;99.90;;;;;;5227547;28;20048;-70
2022/04/01 06:15:44;;;;;;;7.82;3.67;;;3.40;99.90;;;;;;5208384;28;20060;-70
2022/04/01 06:19:06;;;;;;;7.68;3.67;;;3.40;99.90;;;;;;5230258;28;20059;-69
2022/04/01 06:21:47;;;;;;;7.23;2.90;;;3.40;99.90;;;;;;5216725;28;20412;-69
2022/04/01 06:24:38;;;;;;;6.18;3.40;;;3.30;99.90;;;;;;5217148;28;20041;-69
2022/04/01 06:27:13;;;;;;;7.65;2.90;;;3.30;99.90;;;;;;5215729;28;20037;-69
2022/04/01 06:29:59;;;;;;;4.05;2.65;;;3.30;99.90;;;;;;5227178;28;21211;-69
2022/04/01 06:32:45;;;;;;;5.88;3.05;;;3.30;99.90;;;;;;5227072;28;20040;-69
2022/04/01 06:35:36;;;;;;;5.20;3.13;;;3.40;99.90;;;;;;5216052;28;20044;-70
2022/04/01 06:38:54;;;;;;;4.25;2.70;;;3.40;99.90;;;;;;5226590;28;20037;-70
2022/04/01 06:41:36;;;;;;;5.30;3.13;;;3.30;99.90;;;;;;5229581;28;20045;-70
2022/04/01 06:44:18;;;;;;;4.30;2.60;;;3.30;99.90;;;;;;5214870;28;20045;-71
2022/04/01 06:47:11;;;;;;;7.68;3.22;;;3.40;99.90;;;;;;5228152;28;21039;-71
2022/04/01 06:49:43;;;;;;;9.13;3.65;;;3.30;99.90;;;;;;5199738;28;20053;-69
2022/04/01 06:52:40;;;;;;;4.25;2.40;;;3.30;99.90;;;;;;5226600;28;20555;-71
2022/04/01 06:55:31;;;;;;;5.03;2.60;;;3.30;99.90;;;;;;5225098;28;20699;-71
2022/04/01 06:58:11;;;;;;;3.97;2.47;;;3.40;99.90;;;;;;5224156;28;20052;-70
2022/04/01 07:00:50;;;;;;;;;;;3.40;99.90;;;;;;5229134;28;20040;-71
2022/04/01 07:03:23;;;;;;;4.40;2.47;;;3.30;99.90;;;;;;5215218;28;20423;-71
2022/04/01 07:05:55;;;;;;;2.83;2.20;;;3.40;99.90;;;;;;5226289;28;20651;-71
2022/04/01 07:08:28;;;;;;;5.30;2.00;;;3.50;99.90;;;;;;5216726;28;20037;-71
2022/04/01 07:11:01;;;;;;;2.58;1.90;;;3.40;99.90;;;;;;5226512;28;20044;-70
2022/04/01 07:13:33;;;;;;;5.05;2.83;;;3.40;99.90;;;;;;5225530;28;20044;-69
2022/04/01 07:16:06;;;;;;;4.43;2.25;;;3.40;99.90;;;;;;5227611;28;20051;-69
2022/04/01 07:18:39;;;;;;;3.65;2.10;;;3.50;99.90;;;;;;5227257;28;20044;-69
2022/04/01 07:21:12;;;;;;;2.60;1.90;;;3.40;99.90;;;;;;5227437;28;21138;-69
2022/04/01 07:23:45;;;;;;;2.97;2.20;;;3.30;99.90;;;;;;5228477;28;20059;-71
2022/04/01 07:26:17;;;;;;;4.60;2.60;;;3.30;99.90;;;;;;5228472;28;20060;-70
2022/04/01 07:28:50;;;;;;;2.30;1.90;;;3.40;99.90;;;;;;5224752;28;20048;-70
2022/04/01 07:34:44;;;;;;;2.35;1.70;;;3.50;99.90;;;;;;5229807;28;20045;-69
2022/04/01 07:37:21;;;;;;;4.22;2.17;;;3.50;99.90;;;;;;5223975;28;20044;-70
2022/04/01 07:40:14;;;;;;;2.13;1.70;;;3.40;99.90;;;;;;5225946;28;20041;-69
2022/04/01 07:42:48;;;;;;;7.65;1.90;;;3.30;99.90;;;;;;5209916;28;20037;-70
2022/04/01 07:45:21;;;;;;;3.25;1.77;;;3.30;99.90;;;;;;5227000;28;20039;-70
2022/04/01 07:47:54;;;;;;;2.83;1.70;;;3.40;99.90;;;;;;5225323;28;20115;-69
2022/04/01 07:50:27;;;;;;;3.47;1.83;;;3.50;99.90;;;;;;5215064;28;20041;-70
2022/04/01 07:53:00;;;;;;;2.85;1.95;;;3.60;99.90;;;;;;5228323;28;20052;-70
2022/04/01 07:55:34;;;;;;;2.00;1.40;;;3.50;99.90;;;;;;5228577;28;20033;-68
2022/04/01 07:58:07;;;;;;;3.05;1.77;;;3.50;99.90;;;;;;5231049;28;20041;-69
2022/04/01 08:00:57;;;;;;;3.70;1.88;;;3.50;99.90;;;;;;5227325;28;20059;-68
2022/04/01 08:03:29;;;;;;;2.03;1.60;;;3.60;99.90;;;;;;5225005;28;20053;-69
2022/04/01 08:06:02;;;;;;;1.58;1.10;;;3.60;99.90;;;;;;5224456;28;20041;-69
2022/04/01 08:08:34;;;;;;;2.42;1.60;;;3.60;99.90;;;;;;5225150;28;20052;-69
2022/04/01 08:11:07;;;;;;;5.75;1.85;;;3.50;99.90;;;;;;5226211;28;20632;-69
2022/04/01 08:13:39;;;;;;;12.35;4.65;;;3.60;99.90;;;;;;5225205;28;20052;-69
2022/04/01 08:16:13;;;;;;;10.23;3.75;;;3.60;99.90;;;;;;5228306;28;20199;-69
2022/04/01 08:18:47;;;;;;;5.78;2.50;;;3.70;99.90;;;;;;5225271;28;20411;-69
2022/04/01 08:21:20;;;;;;;3.20;1.63;;;3.70;99.90;;;;;;5210030;28;20056;-69
2022/04/01 08:23:53;;;;;;;3.07;1.70;;;3.70;99.90;;;;;;5215671;28;20407;-69
2022/04/01 08:26:26;;;;;;;2.67;2.33;;;3.60;99.90;;;;;;5226346;28;20049;-69
2022/04/01 08:28:59;;;;;;;2.40;1.70;;;3.60;99.90;;;;;;5209274;28;20611;-69
2022/04/01 08:31:33;;;;;;;2.08;1.70;;;3.70;99.90;;;;;;5227141;28;20045;-69
2022/04/01 08:34:05;;;;;;;2.28;1.52;;;3.70;99.90;;;;;;5228417;28;20063;-69
2022/04/01 08:36:38;;;;;;;2.63;1.60;;;3.70;99.90;;;;;;5227846;28;20059;-69
2022/04/01 08:39:11;;;;;;;2.20;1.63;;;3.80;99.90;;;;;;5226608;28;20095;-69
2022/04/01 08:41:43;;;;;;;2.92;1.70;;;3.80;99.90;;;;;;5229303;28;20071;-70
2022/04/01 08:44:16;;;;;;;3.88;1.95;;;3.90;99.90;;;;;;5219132;28;20523;-70
2022/04/01 08:46:48;;;;;;;2.38;1.60;;;4.00;99.90;;;;;;5230292;28;20048;-69
2022/04/01 08:49:22;;;;;;;2.45;1.58;;;4.00;99.90;;;;;;5234849;28;20040;-69
2022/04/01 08:51:56;;;;;;;1.73;1.33;;;4.10;99.90;;;;;;5231611;28;20488;-69
2022/04/01 08:54:33;;;;;;;;;;;4.10;99.90;;;;;;5229173;28;20032;-70
2022/04/01 08:57:06;;;;;;;1.55;1.20;;;4.10;99.90;;;;;;5231291;28;19940;-69
2022/04/01 08:59:39;;;;;;;2.15;1.60;;;4.10;99.90;;;;;;5230646;28;20060;-69
2022/04/01 09:02:11;;;;;;;1.65;1.20;;;4.20;99.90;;;;;;5230394;28;20052;-70
2022/04/01 09:04:45;;;;;;;1.70;1.30;;;4.30;99.90;;;;;;5213872;28;20067;-69
2022/04/01 09:07:17;;;;;;;1.40;1.25;;;4.30;99.90;;;;;;5232937;28;20127;-71
2022/04/01 09:10:00;;;;;;;1.98;1.48;;;4.40;99.90;;;;;;5230220;28;20044;-69
2022/04/01 09:12:34;;;;;;;1.33;1.23;;;4.40;99.90;;;;;;5218545;28;20048;-69
2022/04/01 09:15:08;;;;;;;1.50;1.30;;;4.50;99.90;;;;;;5231130;28;20048;-70
2022/04/01 09:17:44;;;;;;;1.90;1.50;;;4.50;99.90;;;;;;5234397;28;20060;-69
2022/04/01 09:20:17;;;;;;;3.05;1.88;;;4.70;99.90;;;;;;5233399;28;20044;-70
2022/04/01 09:22:58;;;;;;;3.47;1.60;;;4.80;99.90;;;;;;5234875;28;20053;-69
2022/04/01 09:25:30;;;;;;;1.30;1.05;;;4.90;99.90;;;;;;5214742;28;21114;-70
2022/04/01 09:28:03;;;;;;;1.70;1.30;;;4.90;99.90;;;;;;5227552;28;20294;-69
2022/04/01 09:30:35;;;;;;;3.55;1.45;;;5.00;99.90;;;;;;5230858;28;20036;-69
2022/04/01 09:33:08;;;;;;;1.25;1.10;;;5.00;99.90;;;;;;5227663;28;20068;-69
2022/04/01 09:35:40;;;;;;;1.40;1.30;;;5.00;99.90;;;;;;5232264;28;20041;-71
2022/04/01 09:38:13;;;;;;;1.48;1.30;;;5.00;99.90;;;;;;5229455;28;20056;-71
2022/04/01 09:40:50;;;;;;;1.63;1.50;;;4.90;99.90;;;;;;5230853;28;20052;-71
2022/04/01 09:43:24;;;;;;;2.75;1.50;;;4.90;99.90;;;;;;5232456;28;20424;-70
2022/04/01 09:46:04;;;;;;;3.35;1.95;;;4.80;99.90;;;;;;5231655;28;20700;-71
2022/04/01 09:48:40;;;;;;;2.10;1.38;;;4.70;99.90;;;;;;5227989;28;20067;-71
2022/04/01 09:51:13;;;;;;;2.83;1.50;;;4.60;99.90;;;;;;5230801;28;20056;-71
2022/04/01 09:53:54;;;;;;;1.40;1.30;;;4.60;99.90;;;;;;5229383;28;20072;-71
2022/04/01 09:56:47;;;;;;;1.30;1.20;;;4.70;99.90;;;;;;5211613;28;20055;-71
2022/04/01 09:59:19;;;;;;;1.98;1.50;;;4.70;99.90;;;;;;5217568;28;20411;-71
2022/04/01 10:01:52;;;;;;;1.60;1.50;;;4.80;99.90;;;;;;5228921;28;20045;-71
2022/04/01 10:04:25;;;;;;;2.55;2.08;;;4.80;99.90;;;;;;5227644;28;20091;-71
2022/04/01 10:07:00;;;;;;;3.50;1.95;;;4.80;99.90;;;;;;5228835;28;20048;-71
2022/04/01 10:09:34;;;;;;;2.30;1.83;;;4.80;99.90;;;;;;5228225;28;20040;-71
2022/04/01 10:12:28;;;;;;;2.22;1.70;;;4.80;99.90;;;;;;5229791;28;20037;-71
2022/04/01 10:15:01;;;;;;;;;;;4.80;99.90;;;;;;5228137;28;20059;-71
2022/04/01 10:17:55;;;;;;;1.92;1.67;;;4.90;99.90;;;;;;5226905;28;20312;-72
2022/04/01 10:20:36;;;;;;;3.85;2.22;;;4.80;99.90;;;;;;5209598;28;20045;-71
2022/04/01 10:23:11;;;;;;;1.63;1.52;;;4.70;99.90;;;;;;5217684;28;20067;-71
2022/04/01 10:26:05;;;;;;;1.73;1.48;;;4.70;99.90;;;;;;5228972;28;20087;-71
2022/04/01 10:28:37;;;;;;;1.52;1.42;;;4.70;99.90;;;;;;5212384;28;20045;-71
2022/04/01 10:31:14;;;;;;;2.78;1.65;;;4.60;99.90;;;;;;5228621;28;20040;-71
2022/04/01 10:33:47;;;;;;;1.75;1.65;;;4.60;99.90;;;;;;5226221;28;20555;-71
2022/04/01 10:36:22;;;;;;;3.28;2.97;;;4.60;99.90;;;;;;5225434;28;20033;-71
2022/04/01 10:39:07;;;;;;;2.30;1.73;;;4.60;99.90;;;;;;5227641;28;20059;-70
2022/04/01 10:42:12;;;;;;;2.28;1.65;;;4.60;99.90;;;;;;5199307;28;20665;-71
2022/04/01 10:44:46;;;;;;;2.30;1.67;;;4.50;99.90;;;;;;5228780;28;20420;-70
2022/04/01 10:53:48;;;;;;;5.05;1.75;;;4.50;99.90;;;;;;5228539;28;20037;-71
2022/04/01 10:56:21;;;;;;;5.35;2.30;;;4.50;99.90;;;;;;5229946;28;20052;-71
2022/04/01 10:59:12;;;;;;;3.78;2.10;;;4.50;99.90;;;;;;5216849;28;20056;-71
2022/04/01 11:01:57;;;;;;;2.45;1.80;;;4.60;99.90;;;;;;5227792;28;20059;-71
2022/04/01 11:04:32;;;;;;;2.83;2.08;;;4.50;99.90;;;;;;5228463;28;20040;-72
2022/04/01 11:07:23;;;;;;;2.88;2.20;;;4.60;99.90;;;;;;5214728;28;20061;-71
2022/04/01 11:09:56;;;;;;;3.60;1.95;;;4.60;99.90;;;;;;5225758;28;20045;-71
2022/04/01 11:12:41;;;;;;;2.30;2.10;;;4.60;99.90;;;;;;5215281;28;20050;-71
2022/04/01 11:15:17;;;;;;;2.05;1.85;;;4.60;99.90;;;;;;5215133;28;20045;-72
2022/04/01 11:17:56;;;;;;;1.63;1.52;;;4.50;99.90;;;;;;5205948;28;20043;-71
2022/04/01 11:20:29;;;;;;;2.45;2.00;;;4.60;99.90;;;;;;5220085;28;20406;-71
2022/04/01 11:23:10;;;;;;;2.97;1.95;;;4.70;99.90;;;;;;5197930;28;20753;-71
2022/04/01 11:25:47;;;;;;;3.15;2.20;;;4.70;99.90;;;;;;5222972;28;20060;-71
2022/04/01 11:28:20;;;;;;;2.00;1.80;;;4.80;99.90;;;;;;5225452;28;20040;-71
2022/04/01 11:30:54;;;;;;;2.00;1.77;;;4.70;99.90;;;;;;5226845;28;20052;-71
2022/04/01 11:33:27;;;;;;;2.58;2.15;;;4.70;99.90;;;;;;5214410;28;20041;-71
2022/04/01 11:35:59;;;;;;;2.10;1.90;;;4.70;99.90;;;;;;5225887;28;20052;-71
2022/04/01 11:38:32;;;;;;;2.67;2.17;;;4.90;99.90;;;;;;5214319;28;20475;-71
2022/04/01 11:41:04;;;;;;;3.42;2.63;;;4.90;99.90;;;;;;5219309;28;20048;-71
2022/04/01 11:43:37;;;;;;;2.38;2.05;;;4.90;99.90;;;;;;5224908;28;20056;-71
2022/04/01 11:46:10;;;;;;;3.33;2.47;;;4.90;99.90;;;;;;5227904;28;20059;-71
2022/04/01 11:48:45;;;;;;;2.28;2.08;;;5.00;99.90;;;;;;5225655;28;20048;-71
2022/04/01 11:51:20;;;;;;;2.25;2.05;;;5.00;99.90;;;;;;5223072;28;20048;-70
2022/04/01 11:53:53;;;;;;;2.92;2.40;;;4.90;99.90;;;;;;5226833;28;20055;-71
2022/04/01 11:56:27;;;;;;;;;;;5.00;99.90;;;;;;5211750;28;20048;-71
2022/04/01 11:59:01;;;;;;;32.60;13.75;;;4.90;99.90;;;;;;5226987;28;19925;-71
2022/04/01 12:01:54;;;;;;;5.50;3.63;;;5.00;99.90;;;;;;5210340;28;20048;-71
2022/04/01 12:04:35;;;;;;;3.97;2.72;;;4.90;99.90;;;;;;5214326;28;20064;-71
2022/04/01 12:10:20;;;;;;;4.28;2.83;;;4.80;99.90;;;;;;5199883;28;20052;-71
2022/04/01 12:12:53;;;;;;;3.95;2.63;;;4.80;99.90;;;;;;5215598;28;20070;-71
2022/04/01 12:15:34;;;;;;;;;;;5.00;99.90;;;;;;5196240;28;20048;-71
2022/04/01 12:18:15;;;;;;;4.13;2.85;;;4.90;99.90;;;;;;5194384;28;19928;-71
2022/04/01 12:20:50;;;;;;;3.33;2.60;;;5.00;99.90;;;;;;5194726;28;20049;-71
2022/04/01 12:23:28;;;;;;;4.18;3.15;;;5.00;99.90;;;;;;5198661;28;20064;-71
2022/04/01 12:26:01;;;;;;;4.20;3.10;;;4.90;99.90;;;;;;5215171;28;20436;-71
2022/04/01 12:28:40;;;;;;;4.00;3.28;;;4.90;99.90;;;;;;5207076;28;20056;-71
2022/04/01 12:31:20;;;;;;;5.57;3.70;;;4.90;99.90;;;;;;5214904;28;20626;-72
2022/04/01 12:33:55;;;;;;;3.15;2.33;;;4.90;99.90;;;;;;5219292;28;20048;-71
2022/04/01 12:36:38;;;;;;;5.68;3.83;;;4.90;99.90;;;;;;5222370;28;20072;-71
2022/04/01 12:39:12;;;;;;;4.83;3.43;;;4.80;99.90;;;;;;5219618;28;20041;-71
2022/04/01 12:41:53;;;;;;;3.92;3.35;;;5.00;99.90;;;;;;5224654;28;20057;-71
2022/04/01 12:44:31;;;;;;;6.63;4.05;;;5.00;99.90;;;;;;5214978;28;20075;-72
2022/04/01 12:47:04;;;;;;;5.82;4.00;;;5.00;99.90;;;;;;5215127;28;20041;-72
2022/04/01 12:49:41;;;;;;;6.15;3.78;;;4.90;99.90;;;;;;5222601;28;20056;-72
2022/04/01 12:52:16;;;;;;;6.43;3.83;;;4.80;99.90;;;;;;5213537;28;20048;-71
2022/04/01 12:54:58;;;;;;;4.15;3.38;;;4.80;99.90;;;;;;5199917;28;20414;-73
2022/04/01 12:57:32;;;;;;;4.60;3.00;;;4.90;99.90;;;;;;5202247;28;20049;-73
2022/04/01 13:00:14;;;;;;;4.10;3.25;;;4.90;99.90;;;;;;5181324;28;20059;-72
2022/04/01 13:02:47;;;;;;;5.60;3.28;;;4.90;99.90;;;;;;5194473;28;21036;-74
2022/04/01 13:05:19;;;;;;;5.00;3.20;;;4.80;99.90;;;;;;5197360;28;20063;-72
2022/04/01 13:07:53;;;;;;;4.20;3.47;;;4.80;99.90;;;;;;5208950;28;20040;-73
2022/04/01 13:10:26;;;;;;;3.72;3.28;;;4.90;99.90;;;;;;5184036;28;20052;-72
2022/04/01 13:12:58;;;;;;;3.93;3.50;;;5.00;99.90;;;;;;5192820;28;20041;-72
2022/04/01 13:15:31;;;;;;;3.80;3.10;;;5.00;99.90;;;;;;5209733;28;20041;-73
2022/04/01 13:18:03;;;;;;;3.55;3.00;;;5.10;99.90;;;;;;5183882;28;21136;-72
2022/04/01 13:20:36;;;;;;;4.22;3.10;;;5.00;99.90;;;;;;5197006;28;20060;-72
2022/04/01 13:23:08;;;;;;;3.70;2.95;;;4.90;99.90;;;;;;5200764;28;20049;-72
2022/04/01 13:25:41;;;;;;;4.45;3.92;;;5.00;99.90;;;;;;5201636;28;20060;-72
2022/04/01 13:28:14;;;;;;;4.38;2.83;;;4.90;99.90;;;;;;5211118;28;20049;-72
2022/04/01 13:30:48;;;;;;;5.68;4.05;;;4.90;99.90;;;;;;5197428;28;20041;-72
2022/04/01 13:33:20;;;;;;;4.07;3.30;;;4.90;99.90;;;;;;5195038;28;20053;-72
2022/04/01 13:35:53;;;;;;;5.15;3.65;;;4.90;99.90;;;;;;5200275;28;21503;-73
2022/04/01 13:38:26;;;;;;;6.25;4.18;;;4.90;99.90;;;;;;5204168;28;20051;-73
2022/04/01 13:40:59;;;;;;;7.53;4.68;;;4.80;99.90;;;;;;5206988;28;20709;-72
2022/04/01 13:43:32;;;;;;;7.47;3.97;;;4.80;99.90;;;;;;5202433;28;20037;-72
2022/04/01 13:46:04;;;;;;;4.70;3.50;;;4.70;99.90;;;;;;5211379;28;20055;-71
2022/04/01 13:48:37;;;;;;;5.65;4.15;;;4.70;99.90;;;;;;5211710;28;20508;-69
2022/04/01 13:51:09;;;;;;;5.47;4.10;;;4.60;99.90;;;;;;5199481;28;20960;-70
2022/04/01 13:53:42;;;;;;;3.83;3.28;;;4.60;99.90;;;;;;5216753;28;20052;-68
2022/04/01 13:56:14;;;;;;;5.57;4.13;;;4.60;99.90;;;;;;5210946;28;20044;-70
2022/04/01 13:58:47;;;;;;;6.35;4.30;;;4.60;99.90;;;;;;5202069;28;20059;-70
2022/04/01 14:01:20;;;;;;;6.28;3.17;;;4.50;99.90;;;;;;5215779;28;20044;-71
2022/04/01 14:03:53;;;;;;;;;;;4.50;99.90;;;;;;5219182;28;20055;-70
2022/04/01 14:06:26;;;;;;;7.82;5.10;;;4.50;99.90;;;;;;5217045;28;19929;-70
2022/04/01 14:08:59;;;;;;;5.70;4.63;;;4.40;99.90;;;;;;5213653;28;20076;-69